Arbalist — J8B3636 — position and weather

sailwx.info

Track history (hours):
 
Tides and Currents Weather Stations Pressure Air Temp Water Temp Dewpoint Dewpoint Depression Visibility Wind Speed Wind Dir Waves Ship Positions

Arbalist

Last reported at 2015-Jan-19 20:21 UTC. Time now 2015-Jan-25 18:23 UTC.
Position N 37°30' E 023°41'.

Length 115 m; draft 4.5 m.

Type: Cargo ship. MMSI: 37579300.

Date/timePositionNaut miles runAvg speedWind from/ knotsBaromVisibWave heightAir tempDewpointWater temp
2015-Jan-19 20:21N 37°30' E 023°41'7 8.7
2015-Jan-19 19:33N 37°37' E 023°43'8 8.3
2015-Jan-19 18:33N 37°45' E 023°39'9 8.7
2015-Jan-19 17:34N 37°53' E 023°35'3 3.3
2015-Jan-19 16:34N 37°56' E 023°34'0 0.0
2015-Jan-19 15:34N 37°56' E 023°34'0 0.0
2015-Jan-19 14:34N 37°56' E 023°34'0 0.0
2015-Jan-19 13:34N 37°56' E 023°34'0 0.0
2015-Jan-19 12:33N 37°56' E 023°34'0 0.0
2015-Jan-19 11:33N 37°56' E 023°34'0 0.0
2015-Jan-19 10:33N 37°56' E 023°34'0 0.0
2015-Jan-19 09:33N 37°56' E 023°34'0 0.0
2015-Jan-19 08:34N 37°56' E 023°34'0 0.0
2015-Jan-19 07:33N 37°56' E 023°34'0 0.0
2015-Jan-19 06:34N 37°56' E 023°34'0 0.0
2015-Jan-19 05:33N 37°56' E 023°34'0 0.0
2015-Jan-19 04:34N 37°56' E 023°34'0 0.0
2015-Jan-19 03:33N 37°56' E 023°34'0 0.0
2015-Jan-19 02:33N 37°56' E 023°34'0 0.0
2015-Jan-19 01:33N 37°56' E 023°34'0 0.0
2015-Jan-19 00:33N 37°56' E 023°34'0 0.0
2015-Jan-18 23:33N 37°56' E 023°34'0 0.0
2015-Jan-18 22:34N 37°56' E 023°34'0 0.0
2015-Jan-18 21:34N 37°56' E 023°34'0 0.0
2015-Jan-18 20:33N 37°56' E 023°34'0 0.0
2015-Jan-18 19:34N 37°56' E 023°34'0 0.0
2015-Jan-18 18:33N 37°56' E 023°34'0 0.1
2015-Jan-18 17:34N 37°56' E 023°34'0 0.0
2015-Jan-18 16:34N 37°56' E 023°34'0 0.0
2015-Jan-18 15:33N 37°56' E 023°34'0 0.0
2015-Jan-18 14:33N 37°56' E 023°34'0 0.0
2015-Jan-18 13:33N 37°56' E 023°34'0 0.1
2015-Jan-18 12:33N 37°55' E 023°34'0 0.4
2015-Jan-18 11:34N 37°56' E 023°34'0 0.1
2015-Jan-18 10:33N 37°56' E 023°34'0 0.0
2015-Jan-18 09:33N 37°56' E 023°34'0 0.1
2015-Jan-18 08:33N 37°56' E 023°34'0 0.1
2015-Jan-18 07:33N 37°56' E 023°34'0 0.0
2015-Jan-18 06:33N 37°56' E 023°34'0 0.3
2015-Jan-18 05:33N 37°56' E 023°34'5 5.0
2015-Jan-18 04:34N 37°52' E 023°38'8 8.3
2015-Jan-18 03:33N 37°45' E 023°43'9 9.1
2015-Jan-18 02:33N 37°36' E 023°48'90 9.0
2015-Jan-17 16:32N 36°18' E 024°44'9 9.6
2015-Jan-17 15:33N 36°13' E 024°54'1010.0
2015-Jan-17 14:33N 36°07' E 025°04'10 9.7
2015-Jan-17 13:34N 36°01' E 025°13'  
Track history (hours):
 
Tides and Currents Weather Stations Pressure Air Temp Water Temp Dewpoint Dewpoint Depression Visibility Wind Speed Wind Dir Waves Ship Positions

Arbalist

Last reported at 2015-Jan-19 20:21 UTC. Time now 2015-Jan-25 18:23 UTC.
Position N 37°30' E 023°41'.

Length 115 m; draft 4.5 m.

Type: Cargo ship. MMSI: 37579300.

Date/timePositionNaut miles runAvg speedWind from/ knotsBaromVisibWave heightAir tempDewpointWater temp
2015-Jan-19 20:21N 37°30' E 023°41'7 8.7
2015-Jan-19 19:33N 37°37' E 023°43'8 8.3
2015-Jan-19 18:33N 37°45' E 023°39'9 8.7
2015-Jan-19 17:34N 37°53' E 023°35'3 3.3
2015-Jan-19 16:34N 37°56' E 023°34'0 0.0
2015-Jan-19 15:34N 37°56' E 023°34'0 0.0
2015-Jan-19 14:34N 37°56' E 023°34'0 0.0
2015-Jan-19 13:34N 37°56' E 023°34'0 0.0
2015-Jan-19 12:33N 37°56' E 023°34'0 0.0
2015-Jan-19 11:33N 37°56' E 023°34'0 0.0
2015-Jan-19 10:33N 37°56' E 023°34'0 0.0
2015-Jan-19 09:33N 37°56' E 023°34'0 0.0
2015-Jan-19 08:34N 37°56' E 023°34'0 0.0
2015-Jan-19 07:33N 37°56' E 023°34'0 0.0
2015-Jan-19 06:34N 37°56' E 023°34'0 0.0
2015-Jan-19 05:33N 37°56' E 023°34'0 0.0
2015-Jan-19 04:34N 37°56' E 023°34'0 0.0
2015-Jan-19 03:33N 37°56' E 023°34'0 0.0
2015-Jan-19 02:33N 37°56' E 023°34'0 0.0
2015-Jan-19 01:33N 37°56' E 023°34'0 0.0
2015-Jan-19 00:33N 37°56' E 023°34'0 0.0
2015-Jan-18 23:33N 37°56' E 023°34'0 0.0
2015-Jan-18 22:34N 37°56' E 023°34'0 0.0
2015-Jan-18 21:34N 37°56' E 023°34'0 0.0
2015-Jan-18 20:33N 37°56' E 023°34'0 0.0
2015-Jan-18 19:34N 37°56' E 023°34'0 0.0
2015-Jan-18 18:33N 37°56' E 023°34'0 0.1
2015-Jan-18 17:34N 37°56' E 023°34'0 0.0
2015-Jan-18 16:34N 37°56' E 023°34'0 0.0
2015-Jan-18 15:33N 37°56' E 023°34'0 0.0
2015-Jan-18 14:33N 37°56' E 023°34'0 0.0
2015-Jan-18 13:33N 37°56' E 023°34'0 0.1
2015-Jan-18 12:33N 37°55' E 023°34'0 0.4
2015-Jan-18 11:34N 37°56' E 023°34'0 0.1
2015-Jan-18 10:33N 37°56' E 023°34'0 0.0
2015-Jan-18 09:33N 37°56' E 023°34'0 0.1
2015-Jan-18 08:33N 37°56' E 023°34'0 0.1
2015-Jan-18 07:33N 37°56' E 023°34'0 0.0
2015-Jan-18 06:33N 37°56' E 023°34'0 0.3
2015-Jan-18 05:33N 37°56' E 023°34'5 5.0
2015-Jan-18 04:34N 37°52' E 023°38'8 8.3
2015-Jan-18 03:33N 37°45' E 023°43'9 9.1
2015-Jan-18 02:33N 37°36' E 023°48'90 9.0
2015-Jan-17 16:32N 36°18' E 024°44'9 9.6
2015-Jan-17 15:33N 36°13' E 024°54'1010.0
2015-Jan-17 14:33N 36°07' E 025°04'10 9.7
2015-Jan-17 13:34N 36°01' E 025°13'  

Dump ship's entire track history